createdAt,value
2018-06-04T00:01:11.916Z,50.03
2018-06-04T00:03:41.506Z,52.43
2018-06-04T00:06:11.204Z,55.97
2018-06-04T00:08:41.934Z,54.20
2018-06-04T00:11:11.607Z,51.90
2018-06-04T00:13:41.592Z,54.13
2018-06-04T00:16:12.443Z,57.23
2018-06-04T00:18:41.691Z,60.37
2018-06-04T00:21:11.666Z,58.67
2018-06-04T00:23:41.165Z,63.00
2018-06-04T00:26:10.837Z,64.40
2018-06-04T00:28:41.235Z,66.67
2018-06-04T00:31:10.767Z,67.77
2018-06-04T00:33:40.426Z,68.27
2018-06-04T00:36:10.715Z,67.17
2018-06-04T00:38:40.446Z,67.57
2018-06-04T00:41:10.740Z,71.07
2018-06-04T00:43:40.742Z,73.10
2018-06-04T00:46:10.680Z,73.07
2018-06-04T00:48:40.552Z,77.70
2018-06-04T00:51:09.919Z,77.67
2018-06-04T00:53:39.560Z,75.20
2018-06-04T00:56:22.062Z,77.50
2018-06-04T01:00:20.349Z,76.10
2018-06-04T01:02:49.896Z,73.57
2018-06-04T01:05:19.188Z,74.90
2018-06-04T01:07:51.139Z,74.57
2018-06-04T01:10:20.435Z,73.80
2018-06-04T01:12:50.046Z,75.03
2018-06-04T01:15:19.290Z,75.00
2018-06-04T01:17:48.531Z,74.43
2018-06-04T01:20:18.063Z,73.83
2018-06-04T01:22:50.115Z,75.90
2018-06-04T01:25:19.486Z,76.07
2018-06-04T01:27:48.854Z,76.47
2018-06-04T01:30:18.525Z,78.63
2018-06-04T01:32:48.231Z,72.40
2018-06-04T01:35:18.014Z,75.20
2018-06-04T01:37:47.493Z,78.87
2018-06-04T01:40:16.986Z,85.97
2018-06-04T01:42:46.417Z,80.70
2018-06-04T01:45:15.906Z,85.97
2018-06-04T01:47:45.725Z,78.85
2018-06-04T01:50:15.389Z,78.17
2018-06-04T01:52:44.867Z,77.40
2018-06-04T01:55:14.654Z,77.50
2018-06-04T01:57:45.221Z,78.77
2018-06-04T02:00:15.493Z,75.43
2018-06-04T02:02:45.537Z,81.90
2018-06-04T02:05:15.419Z,78.97
2018-06-04T02:07:45.913Z,72.53
2018-06-04T02:10:15.665Z,72.57
2018-06-04T02:12:44.657Z,73.53
2018-06-04T02:15:14.347Z,73.57
2018-06-04T02:17:46.335Z,78.57
2018-06-04T02:20:15.837Z,79.20
2018-06-04T02:22:44.900Z,83.80
2018-06-04T02:25:14.595Z,82.43
2018-06-04T02:27:45.581Z,76.70
2018-06-04T02:30:14.709Z,74.60
2018-06-04T02:32:44.161Z,75.03
2018-06-04T02:35:13.512Z,76.80
2018-06-04T02:37:43.107Z,74.40
2018-06-04T02:40:13.836Z,72.33
2018-06-04T02:42:43.502Z,67.63
2018-06-04T02:45:12.927Z,67.03
2018-06-04T02:47:42.496Z,69.30
2018-06-04T02:50:12.042Z,74.10
2018-06-04T02:52:41.723Z,69.97
2018-06-04T02:55:11.753Z,76.40
2018-06-04T02:57:41.418Z,71.33
2018-06-04T03:00:10.812Z,70.30
2018-06-04T03:02:40.485Z,73.50
2018-06-04T03:05:10.634Z,71.90
2018-06-04T03:07:40.120Z,70.03
2018-06-04T03:10:10.139Z,70.20
2018-06-04T03:12:39.874Z,69.17
2018-06-04T03:15:09.498Z,65.83
2018-06-04T03:17:38.934Z,66.00
2018-06-04T03:20:09.166Z,62.60
2018-06-04T03:22:38.521Z,69.40
2018-06-04T03:25:08.156Z,68.73
2018-06-04T03:27:37.567Z,71.03
2018-06-04T03:30:08.100Z,68.83
2018-06-04T03:32:38.048Z,69.83
2018-06-04T03:35:07.839Z,69.97
2018-06-04T03:37:38.396Z,71.80
2018-06-04T03:40:07.951Z,69.33
2018-06-04T03:42:37.377Z,67.20
2018-06-04T03:45:06.954Z,65.70
2018-06-04T03:47:36.542Z,67.20
2018-06-04T03:50:06.206Z,62.50
2018-06-04T03:52:36.308Z,63.97
2018-06-04T03:55:05.980Z,65.43
2018-06-04T03:57:35.796Z,67.20
2018-06-04T04:00:05.677Z,66.13
2018-06-04T04:02:35.234Z,66.75
2018-06-04T04:05:04.728Z,67.13
2018-06-04T04:07:34.955Z,65.10
2018-06-04T04:10:04.537Z,70.33
2018-06-04T04:12:34.078Z,68.27
2018-06-04T04:15:04.640Z,68.97
2018-06-04T04:17:34.301Z,66.93
2018-06-04T04:20:03.968Z,65.17
2018-06-04T04:22:34.132Z,65.90
2018-06-04T04:25:04.082Z,64.30
2018-06-04T04:27:34.784Z,62.23
2018-06-04T04:30:05.506Z,65.20
2018-06-04T04:32:37.441Z,60.43
2018-06-04T04:35:07.795Z,62.30
2018-06-04T04:37:38.120Z,59.67
2018-06-04T04:40:10.699Z,59.27
2018-06-04T04:42:40.327Z,59.53
2018-06-04T04:45:09.942Z,56.87
2018-06-04T04:47:41.897Z,58.20
2018-06-04T04:50:12.329Z,59.27
2018-06-04T04:52:42.929Z,58.57
2018-06-04T04:55:14.214Z,55.07
2018-06-04T04:57:45.634Z,56.40
2018-06-04T05:00:15.642Z,56.10
2018-06-04T05:02:46.275Z,56.50
2018-06-04T05:05:15.813Z,53.23
2018-06-04T05:07:46.384Z,53.23
2018-06-04T05:10:17.141Z,51.67
2018-06-04T05:12:48.375Z,53.53
2018-06-04T05:15:18.787Z,51.27
2018-06-04T05:17:50.407Z,52.83
2018-06-04T05:20:21.249Z,53.00
2018-06-04T05:22:50.865Z,52.87
2018-06-04T05:25:21.025Z,56.07
2018-06-04T05:27:50.499Z,52.87
2018-06-04T05:30:21.711Z,53.13
2018-06-04T05:32:52.589Z,54.95
2018-06-04T05:35:24.007Z,53.07
2018-06-04T05:37:53.945Z,50.97
2018-06-04T05:40:24.304Z,52.80
2018-06-04T05:42:53.787Z,52.87
2018-06-04T05:45:23.955Z,53.00
2018-06-04T05:47:54.237Z,54.47
2018-06-04T05:50:24.051Z,53.30
2018-06-04T05:52:53.766Z,52.80
2018-06-04T05:55:23.671Z,50.83
2018-06-04T05:57:54.411Z,46.33
2018-06-04T06:00:24.109Z,50.37
2018-06-04T06:02:54.538Z,48.20
2018-06-04T06:05:24.085Z,45.23
2018-06-04T06:07:54.528Z,44.07
2018-06-04T06:10:25.016Z,43.50
2018-06-04T06:12:54.709Z,45.87
2018-06-04T06:15:25.722Z,42.97
2018-06-04T06:17:55.604Z,43.33
2018-06-04T06:20:25.228Z,42.90
2018-06-04T06:22:55.641Z,46.73
2018-06-04T06:25:26.080Z,46.10
2018-06-04T06:27:56.852Z,47.23
2018-06-04T06:30:27.543Z,50.00
2018-06-04T06:32:57.174Z,44.83
2018-06-04T06:35:26.766Z,46.40
2018-06-04T06:37:57.401Z,42.33
2018-06-04T06:40:27.150Z,44.57
2018-06-04T06:42:57.530Z,43.27
2018-06-04T06:45:29.152Z,42.53
2018-06-04T06:47:58.545Z,43.83
2018-06-04T06:50:28.700Z,44.47
2018-06-04T06:52:58.737Z,44.53
2018-06-04T06:55:28.707Z,43.47
2018-06-04T06:57:58.661Z,43.03
2018-06-04T07:10:15.089Z,43.80
2018-06-04T07:12:44.767Z,43.20
2018-06-04T07:15:15.054Z,46.50
2018-06-04T07:17:45.302Z,47.13
2018-06-04T07:20:15.555Z,47.73
2018-06-04T07:22:45.071Z,46.67
2018-06-04T07:25:14.479Z,45.70
2018-06-04T07:27:44.594Z,44.40
2018-06-04T07:30:14.983Z,44.43
2018-06-04T07:32:45.786Z,44.50
2018-06-04T07:35:17.954Z,44.70
2018-06-04T07:37:48.807Z,46.93
2018-06-04T07:40:18.637Z,46.53
2018-06-04T07:42:48.311Z,46.87
2018-06-04T07:45:18.385Z,47.40
2018-06-04T07:47:48.689Z,43.77
2018-06-04T07:50:18.383Z,45.65
2018-06-04T07:52:47.846Z,43.07
2018-06-04T07:55:18.647Z,43.90
2018-06-04T07:57:48.728Z,47.50
2018-06-04T08:00:18.688Z,46.70
2018-06-04T08:02:49.053Z,46.50
2018-06-04T08:05:19.418Z,47.33
2018-06-04T08:07:49.062Z,45.70
2018-06-04T08:10:18.734Z,44.33
2018-06-04T08:12:48.176Z,43.37
2018-06-04T08:15:17.939Z,42.23
2018-06-04T08:17:49.078Z,42.20
2018-06-04T08:20:19.481Z,43.23
2018-06-04T08:25:02.889Z,40.37
2018-06-04T08:27:33.974Z,41.80
2018-06-04T08:30:04.829Z,41.37
2018-06-04T08:32:35.430Z,41.27
2018-06-04T08:35:05.186Z,44.03
2018-06-04T08:37:36.993Z,42.40
2018-06-04T08:40:07.293Z,42.60
2018-06-04T08:42:36.878Z,42.00
2018-06-04T08:45:06.947Z,44.07
2018-06-04T08:47:36.586Z,41.77
2018-06-04T08:50:06.196Z,42.07
2018-06-04T08:52:35.878Z,42.40
2018-06-04T08:55:05.642Z,41.30
2018-06-04T08:57:35.184Z,44.27
2018-06-04T09:00:05.165Z,44.03
2018-06-04T09:02:36.357Z,45.23
2018-06-04T09:05:05.993Z,44.93
2018-06-04T09:07:36.285Z,44.20
2018-06-04T09:10:06.339Z,42.63
2018-06-04T09:12:36.415Z,45.75
2018-06-04T09:15:06.062Z,46.00
2018-06-04T09:17:35.705Z,44.67
2018-06-04T09:20:05.149Z,46.07
2018-06-04T09:22:34.866Z,43.20
2018-06-04T09:25:04.997Z,45.53
2018-06-04T09:27:34.203Z,42.43
2018-06-04T09:30:03.765Z,44.40
2018-06-04T09:32:33.024Z,42.63
2018-06-04T09:35:02.658Z,45.23
2018-06-04T09:37:31.951Z,44.77
2018-06-04T09:40:01.258Z,45.27
2018-06-04T09:42:30.765Z,44.67
2018-06-04T09:45:00.007Z,46.77
2018-06-04T09:47:29.971Z,46.33
2018-06-04T09:50:00.252Z,46.53
2018-06-04T09:52:29.533Z,51.07
2018-06-04T09:54:58.729Z,50.20
2018-06-04T09:57:28.786Z,52.03
2018-06-04T09:59:58.015Z,55.03
2018-06-04T10:02:27.333Z,55.83
2018-06-04T10:04:57.007Z,52.40
2018-06-04T10:07:26.498Z,53.80
2018-06-04T10:09:56.221Z,53.57
2018-06-04T10:12:25.794Z,54.70
2018-06-04T10:14:55.795Z,54.67
2018-06-04T10:17:25.776Z,53.47
2018-06-04T10:19:57.225Z,52.73
2018-06-04T10:22:27.255Z,54.93
2018-06-04T10:24:58.127Z,56.50
2018-06-04T10:27:27.592Z,57.03
2018-06-04T10:29:57.325Z,56.23
2018-06-04T10:32:26.534Z,55.70
2018-06-04T10:34:57.068Z,55.80
2018-06-04T10:37:27.014Z,58.37
2018-06-04T10:39:57.312Z,56.27
2018-06-04T10:42:26.824Z,57.80
2018-06-04T10:44:56.313Z,56.80
2018-06-04T10:47:26.881Z,56.03
2018-06-04T10:49:56.259Z,54.97
2018-06-04T10:52:25.719Z,56.23
2018-06-04T10:54:55.251Z,55.03
2018-06-04T10:57:25.196Z,54.47
2018-06-04T10:59:55.143Z,52.90
2018-06-04T11:02:24.648Z,56.03
2018-06-04T11:04:54.843Z,53.03
2018-06-04T11:07:24.295Z,54.07
2018-06-04T11:09:54.325Z,56.73
2018-06-04T11:12:23.806Z,58.53
2018-06-04T11:14:53.124Z,56.47
2018-06-04T11:17:22.685Z,56.33
2018-06-04T11:19:52.168Z,56.23
2018-06-04T11:22:22.227Z,54.73
2018-06-04T11:24:51.836Z,53.03
2018-06-04T11:27:21.355Z,53.77
2018-06-04T11:29:51.825Z,55.23
2018-06-04T11:32:21.317Z,54.73
2018-06-04T11:34:51.450Z,55.97
2018-06-04T11:37:21.072Z,54.83
2018-06-04T11:39:50.569Z,52.90
2018-06-04T11:42:19.978Z,52.60
2018-06-04T11:44:49.462Z,52.90
2018-06-04T11:47:19.988Z,55.00
2018-06-04T11:49:50.540Z,50.73
2018-06-04T11:52:20.141Z,53.70
2018-06-04T11:54:49.746Z,52.27
2018-06-04T11:57:20.686Z,52.23
2018-06-04T11:59:50.039Z,53.90
2018-06-04T12:02:19.700Z,52.20
2018-06-04T12:04:49.154Z,51.87
2018-06-04T12:07:18.674Z,52.87
2018-06-04T12:09:48.370Z,51.17
2018-06-04T12:12:18.672Z,53.37
2018-06-04T12:14:49.801Z,53.23
2018-06-04T12:17:20.117Z,51.47
2018-06-04T12:19:49.623Z,50.70
2018-06-04T12:22:19.280Z,52.23
2018-06-04T12:24:49.402Z,49.83
2018-06-04T12:27:19.492Z,51.57
2018-06-04T12:29:50.329Z,51.10
2018-06-04T12:32:20.045Z,52.10
2018-06-04T12:34:49.788Z,50.30
2018-06-04T12:37:20.007Z,48.17
2018-06-04T12:39:49.472Z,50.27
2018-06-04T12:42:19.340Z,48.43
2018-06-04T12:44:48.930Z,48.40
2018-06-04T12:47:18.427Z,47.07
2018-06-04T12:49:48.136Z,45.07
2018-06-04T12:52:18.438Z,45.10
2018-06-04T12:54:48.158Z,47.60
2018-06-04T12:57:18.402Z,45.40
2018-06-04T12:59:48.206Z,45.00
2018-06-04T13:02:18.022Z,45.60
2018-06-04T13:04:49.872Z,45.60
2018-06-04T13:07:19.683Z,45.10
2018-06-04T13:09:49.824Z,45.73
2018-06-04T13:12:19.870Z,43.50
2018-06-04T13:14:50.144Z,45.20
2018-06-04T13:17:19.706Z,45.27
2018-06-04T13:19:49.379Z,45.13
2018-06-04T13:22:18.802Z,43.93
2018-06-04T13:24:48.803Z,43.73
2018-06-04T13:27:18.422Z,42.53
2018-06-04T13:29:48.247Z,41.77
2018-06-04T13:32:18.559Z,45.50
2018-06-04T13:34:47.954Z,45.10
2018-06-04T13:37:17.882Z,43.80
2018-06-04T13:39:47.475Z,43.07
2018-06-04T13:42:17.060Z,43.10
2018-06-04T13:44:46.852Z,42.03
2018-06-04T13:47:16.764Z,43.30
2018-06-04T13:49:47.829Z,44.40
2018-06-04T13:52:18.150Z,44.03
2018-06-04T13:54:48.009Z,44.73
2018-06-04T13:57:18.299Z,42.50
2018-06-04T13:59:49.700Z,45.57
2018-06-04T14:02:19.820Z,41.53
2018-06-04T14:04:49.817Z,41.00
2018-06-04T14:07:19.391Z,41.53
2018-06-04T14:09:48.840Z,41.80
2018-06-04T14:12:19.369Z,43.03
2018-06-04T14:14:50.793Z,41.40
2018-06-04T14:17:20.337Z,41.57
2018-06-04T14:19:50.053Z,40.70
2018-06-04T14:22:19.956Z,42.17
2018-06-04T14:24:49.845Z,40.87
2018-06-04T14:27:19.637Z,39.83
2018-06-04T14:29:49.493Z,40.60
2018-06-04T14:32:19.627Z,43.20
2018-06-04T14:34:49.475Z,41.47
2018-06-04T14:37:19.355Z,40.23
2018-06-04T14:39:50.304Z,40.20
2018-06-04T14:42:20.166Z,38.40
2018-06-04T14:44:50.658Z,37.63
2018-06-04T14:47:20.495Z,37.97
2018-06-04T14:49:50.860Z,39.27
2018-06-04T14:52:20.626Z,36.40
2018-06-04T14:54:50.704Z,39.70
2018-06-04T14:57:20.301Z,41.83
2018-06-04T14:59:49.972Z,42.43
2018-06-04T15:02:21.050Z,41.10
2018-06-04T15:04:51.018Z,42.20
2018-06-04T15:07:20.569Z,37.00
2018-06-04T15:09:50.343Z,37.57
2018-06-04T15:12:19.936Z,42.37
2018-06-04T15:14:50.654Z,41.63
2018-06-04T15:17:20.353Z,39.67
2018-06-04T15:19:50.193Z,39.30
2018-06-04T15:22:20.530Z,36.57
2018-06-04T15:24:50.262Z,34.87
2018-06-04T15:27:20.120Z,33.57
2018-06-04T15:29:49.953Z,33.77
2018-06-04T15:32:19.617Z,34.90
2018-06-04T15:34:50.038Z,32.07
2018-06-04T15:37:21.746Z,31.03
2018-06-04T15:39:52.336Z,31.13
2018-06-04T15:42:22.031Z,31.80
2018-06-04T15:44:52.725Z,29.27
2018-06-04T15:47:22.089Z,28.27
2018-06-04T15:49:51.449Z,26.87
2018-06-04T15:52:22.447Z,26.60
2018-06-04T15:54:52.334Z,25.93
2018-06-04T15:57:23.299Z,23.77
2018-06-04T15:59:52.557Z,24.27
2018-06-04T16:02:21.848Z,24.93
2018-06-04T16:04:51.901Z,24.13
2018-06-04T16:07:21.175Z,23.70
2018-06-04T16:09:50.499Z,20.87
2018-06-04T16:12:19.804Z,22.23
2018-06-04T16:14:49.067Z,22.60
2018-06-04T16:17:18.295Z,20.40
2018-06-04T16:19:47.653Z,20.37
2018-06-04T16:22:16.872Z,19.13
2018-06-04T16:24:46.858Z,18.87
2018-06-04T16:27:16.541Z,17.37
2018-06-04T16:29:45.854Z,16.07
2018-06-04T16:32:15.221Z,16.80
2018-06-04T16:34:46.174Z,17.35
2018-06-04T16:37:15.548Z,16.43
2018-06-04T16:39:45.921Z,16.17
2018-06-04T16:42:15.871Z,16.57
2018-06-04T16:44:46.295Z,15.83
2018-06-04T16:47:16.198Z,15.90
2018-06-04T16:49:46.916Z,15.27
2018-06-04T16:52:16.872Z,17.40
2018-06-04T16:54:46.613Z,15.13
2018-06-04T16:57:16.942Z,16.67
2018-06-04T16:59:47.201Z,18.37
2018-06-04T17:02:16.942Z,15.80
2018-06-04T17:04:46.537Z,16.63
2018-06-04T17:07:16.000Z,15.03
2018-06-04T17:09:46.913Z,16.37
2018-06-04T17:12:17.389Z,15.77
2018-06-04T17:14:46.994Z,14.73
2018-06-04T17:17:16.830Z,14.87
2018-06-04T17:19:46.512Z,15.07
2018-06-04T17:22:16.127Z,16.00
2018-06-04T17:24:46.664Z,16.63
2018-06-04T17:27:16.577Z,15.97
2018-06-04T17:29:46.257Z,17.40
2018-06-04T17:32:16.014Z,16.70
2018-06-04T17:34:46.249Z,16.17
2018-06-04T17:37:16.310Z,15.87
2018-06-04T17:39:45.977Z,15.60
2018-06-04T17:42:15.848Z,17.67
2018-06-04T17:44:45.453Z,17.33
2018-06-04T17:47:15.569Z,25.00
2018-06-04T17:49:45.906Z,27.23
2018-06-04T17:52:15.700Z,24.80
2018-06-04T17:54:45.393Z,25.23
2018-06-04T17:57:14.928Z,25.50
2018-06-04T17:59:44.787Z,25.70
2018-06-04T18:02:15.608Z,26.80
2018-06-04T18:04:46.010Z,25.27
2018-06-04T18:07:17.983Z,25.80
2018-06-04T18:09:48.840Z,26.77
2018-06-04T18:12:18.891Z,25.63
2018-06-04T18:14:48.382Z,26.93
2018-06-04T18:17:20.287Z,28.07
2018-06-04T18:19:50.352Z,28.63
2018-06-04T18:22:20.501Z,36.47
2018-06-04T18:24:51.194Z,38.13
